• Join FlightAware (Why Join?)
  • Login
  • US Flag 
08:51PM EDT


 

Airport Tracker/Info


-or-


 

Live Flight TrackerFlight Track Log ✈ EGF4090 ✈ 11-Jun-2013 ✈ KORD - KLIT

Flight Track Log - Related Links

Times and Time Zones

All times are in EDT time to prevent confusion due to time zone crossing. See the EGF4090 flight status page for this flight to view local times or setup timezone preferences in your user account.

Time Position Orientation Groundspeed Altitude Reporting Facility
EDT Latitude Longitude Course Direction KTS MPH feet Rate Location/Type
11:13PM 41.9333 -87.9833 194° South 198 228 3,000  Level Chicago TRACON
11:15PM 41.7031 -88.0918 192° South  Level Estimated
11:15PM 41.8422 -88.0619 213° Southwest 242 278 5,300  Level Chicago Center
11:16PM 41.6101 -88.1531 189° South  Level Estimated
11:16PM 41.7642 -88.0592 178° South 278 320 7,000  Level Chicago Center
11:17PM 41.5185 -88.0884 152° Southeast  Level FlightAware Approximate
11:17PM 41.6817 -88.0506 176° South 295 339 9,100  Level Chicago Center
11:18PM 41.4261 -88.1509 194° South  Level Estimated
11:18PM 41.5964 -88.0450 177° South 306 352 10,500  Level Chicago Center
11:19PM 41.3367 -88.2113 194° South  Level Estimated
11:19PM 41.5083 -88.0383 177° South 317 365 12,200  Level Chicago Center
11:20PM 41.4194 -88.0894 203° Southwest 333 383 13,100 780 Climbing Chicago Center
11:21PM 41.3317 -88.1519 208° Southwest 345 397 13,900 720 Climbing Chicago Center
11:22PM 41.2422 -88.2139 208° Southwest 363 418 14,600 780 Climbing Chicago Center
11:23PM 41.1500 -88.2767 207° Southwest 373 429 15,600 960 Climbing Chicago Center
11:24PM 41.0567 -88.3397 207° Southwest 377 434 16,600 960 Climbing Chicago Center
11:25PM 40.9639 -88.4025 207° Southwest 377 434 17,600 960 Climbing Chicago Center
11:26PM 40.8711 -88.4653 207° Southwest 377 434 18,600 1,020 Climbing Chicago Center
11:27PM 40.7561 -88.5431 207° Southwest 387 445 19,700 960 Climbing Chicago Center
11:28PM 40.6592 -88.6075 207° Southwest 392 451 20,600 900 Climbing Chicago Center
11:29PM 40.5606 -88.6739 207° Southwest 399 459 21,600 900 Climbing Chicago Center
11:31PM 40.4608 -88.7403 207° Southwest 402 463 22,500 900 Climbing Chicago Center
11:32PM 40.3553 -88.8094 207° Southwest 402 463 23,500 960 Climbing Chicago Center
11:33PM 40.2547 -88.8750 206° Southwest 403 464 24,500 900 Climbing Chicago Center
11:34PM 40.1542 -88.9417 207° Southwest 402 463 25,400 900 Climbing Chicago Center
11:35PM 40.0539 -89.0067 206° Southwest 402 463 26,400 960 Climbing Chicago Center
11:36PM 39.9525 -89.0733 207° Southwest 405 466 27,400 900 Climbing Chicago Center
11:37PM 39.8522 -89.1408 207° Southwest 403 464 28,300 840 Climbing Kansas City Center
11:38PM 39.7519 -89.2050 206° Southwest 401 461 29,200 960 Climbing Kansas City Center
11:39PM 39.6433 -89.2747 206° Southwest 401 461 30,300 960 Climbing Kansas City Center
11:40PM 39.5439 -89.3397 207° Southwest 400 460 31,200 900 Climbing Kansas City Center
11:41PM 39.4433 -89.4031 206° Southwest 401 461 32,200 900 Climbing Kansas City Center
11:42PM 39.3431 -89.4672 206° Southwest 402 463 33,100 840 Climbing Kansas City Center
11:43PM 39.2411 -89.5333 207° Southwest 407 468 34,000 960 Climbing Kansas City Center
11:44PM 39.1342 -89.6019 206° Southwest 401 461 35,100 960 Climbing Kansas City Center
11:45PM 39.0267 -89.6700 206° Southwest 401 461 36,000 420 Climbing Kansas City Center
11:46PM 38.9256 -89.7344 206° Southwest 405 466 36,000  Level Kansas City Center
11:47PM 38.8358 -89.7894 206° Southwest 412 474 36,000  Level Kansas City Center
11:48PM 38.7278 -89.8575 206° Southwest 425 489 36,000  Level Kansas City Center
11:49PM 38.6183 -89.9242 205° Southwest 431 496 36,000  Level Kansas City Center
11:50PM 38.5000 -89.9608 194° South 437 503 36,000  Level Kansas City Center
11:51PM 38.3769 -89.9775 186° South 440 506 36,000  Level Kansas City Center
11:52PM 38.2447 -90.0583 206° Southwest 441 507 36,000  Level Kansas City Center
11:53PM 38.1381 -90.1306 208° Southwest 435 501 36,000  Level Kansas City Center
11:54PM 38.0308 -90.2000 207° Southwest 433 498 36,000  Level Kansas City Center
11:55PM 37.9236 -90.2675 206° Southwest 431 496 36,000  Level Kansas City Center
11:56PM 37.8161 -90.3394 208° Southwest 434 499 36,000  Level Kansas City Center
11:57PM 37.7086 -90.4103 208° Southwest 436 502 36,000  Level Kansas City Center
11:58PM 37.6000 -90.4742 205° Southwest 434 499 36,000  Level Kansas City Center
11:59PM 37.4939 -90.5464 208° Southwest 434 499 36,000  Level Kansas City Center
12:00AM 37.3850 -90.6139 206° Southwest 434 499 36,000  Level Kansas City Center
12:01AM 37.2833 -90.6769 206° Southwest 430 495 36,000  Level Kansas City Center
12:02AM 37.1547 -90.7575 207° Southwest 431 496 36,000  Level Kansas City Center
12:03AM 37.0486 -90.8236 206° Southwest 429 494 36,000  Level Kansas City Center
12:04AM 36.9422 -90.8906 207° Southwest 428 493 36,000 -360 Level Kansas City Center
12:05AM 36.8353 -90.9569 206° Southwest 429 494 35,400 -1,320 Descending Kansas City Center
12:06AM 36.7297 -91.0219 206° Southwest 427 491 33,400 -1,980 Descending Kansas City Center
12:07AM 36.6233 -91.0878 206° Southwest 427 491 31,400 -1,980 Descending Kansas City Center
12:08AM 36.5183 -91.1517 206° Southwest 424 488 29,400 -2,160 Descending Kansas City Center
12:09AM 36.3869 -91.2361 207° Southwest 435 501 27,000 -2,160 Descending Memphis Center
12:10AM 36.2761 -91.3017 205° Southwest 440 506 25,000 -2,040 Descending Memphis Center
12:11AM 36.1628 -91.3725 207° Southwest 440 506 23,000 -2,040 Descending Memphis Center
12:12AM 36.0539 -91.4378 206° Southwest 446 513 21,000 -1,860 Descending Memphis Center
12:13AM 35.9511 -91.5006 206° Southwest 432 497 19,300 -1,620 Descending Memphis Center
12:14AM 35.8442 -91.5631 205° Southwest 423 487 17,800 -1,500 Descending Memphis Center
12:15AM 35.7436 -91.6281 208° Southwest 423 487 16,300 -1,500 Descending Memphis Center
12:16AM 35.6450 -91.6856 205° Southwest 413 475 14,800 -1,380 Descending Memphis Center
12:17AM 35.5567 -91.7378 206° Southwest 407 468 13,600 -1,500 Descending Memphis Center
12:18AM 35.4792 -91.7847 206° Southwest 384 442 12,300 -1,500 Descending Memphis Center
12:18AM 35.4581 -91.7947 201° Southwest 396 456 12,100 -1,320 Descending Memphis Center
12:19AM 35.3781 -91.8467 208° Southwest 374 430 11,000 -1,200 Descending Memphis Center
12:19AM 35.3678 -91.8517 202° Southwest 384 442 10,900 -720 Descending Memphis Center
12:20AM 35.2942 -91.8911 204° Southwest 340 391 10,300 -720 Descending Memphis Center
12:20AM 35.2794 -91.8983 202° Southwest 370 426 10,200 -1,020 Descending Memphis Center
12:21AM 35.2186 -91.9278 202° Southwest 259 298 9,300 -1,380 Descending Memphis Center
12:22AM 35.1472 -91.9619 201° Southwest 255 293 7,800 -1,440 Descending Memphis Center
12:23AM 35.0803 -91.9911 200° South 265 305 6,500 -1,380 Descending Memphis Center
12:24AM 35.0108 -92.0278 203° Southwest 259 298 5,100 -1,140 Descending Memphis Center
12:25AM 34.9478 -92.0569 201° Southwest 247 284 4,200 -660 Descending Memphis Center
12:26AM 34.8869 -92.0861 201° Southwest 231 266 3,800 -720 Descending Memphis Center
12:27AM 34.8281 -92.1153 202° Southwest 220 253 2,800 -1,020 Descending Memphis Center